Time;durP1;ratioP1;P1;durP2;ratioP2;P2;SDS_P1;SDS_P2;PMS_P1;PMS_P2;Temp;Humidity;BMP_temperature;BMP_pressure;BME280_temperature;BME280_humidity;BME280_pressure;Samples;Min_cycle;Max_cycle;Signal;HPM_P1;HPM_P2
2022/10/03 00:01:35;;;;;;;2.07;0.90;;;;;;;;;;4990725;28;20208;-73
2022/10/03 00:04:21;;;;;;;1.93;0.90;;;;;;;;;;4973894;28;20273;-74
2022/10/03 00:07:00;;;;;;;1.60;0.73;;;;;;;;;;4990375;28;20564;-74
2022/10/03 00:09:39;;;;;;;1.50;0.70;;;;;;;;;;4990564;28;20190;-74
2022/10/03 00:12:14;;;;;;;2.37;0.80;;;;;;;;;;4989802;28;20921;-74
2022/10/03 00:14:47;;;;;;;0.80;0.77;;;;;;;;;;4990888;28;20203;-74
2022/10/03 00:17:20;;;;;;;1.33;0.60;;;;;;;;;;4991029;28;20287;-74
2022/10/03 00:19:54;;;;;;;3.83;0.83;;;;;;;;;;4972830;28;20204;-74
2022/10/03 00:22:27;;;;;;;2.80;0.70;;;;;;;;;;4941467;28;20205;-74
2022/10/03 00:24:57;;;;;;;1.43;0.60;;;;;;;;;;4990905;28;20239;-73
2022/10/03 00:27:36;;;;;;;2.73;1.10;;;;;;;;;;4973464;28;20586;-74
2022/10/03 00:30:19;;;;;;;4.40;0.70;;;;;;;;;;4973266;28;20185;-73
2022/10/03 00:32:45;;;;;;;1.93;0.80;;;;;;;;;;4990363;28;20331;-74
2022/10/03 00:35:19;;;;;;;2.60;0.77;;;;;;;;;;4990636;28;20185;-74
2022/10/03 00:37:53;;;;;;;2.40;1.00;;;;;;;;;;4989483;28;20201;-74
2022/10/03 00:40:56;;;;;;;2.57;0.83;;;;;;;;;;4989400;28;20196;-74
2022/10/03 00:43:36;;;;;;;1.93;1.00;;;;;;;;;;4989132;28;20237;-74
2022/10/03 00:46:06;;;;;;;1.50;0.90;;;;;;;;;;4989091;28;20255;-75
2022/10/03 00:48:38;;;;;;;2.73;1.00;;;;;;;;;;4990588;28;20200;-74
2022/10/03 00:51:05;;;;;;;3.23;1.00;;;;;;;;;;4985575;28;21083;-74
2022/10/03 00:53:49;;;;;;;1.97;0.90;;;;;;;;;;4970654;28;20200;-74
2022/10/03 00:56:20;;;;;;;3.13;1.10;;;;;;;;;;4971054;28;20205;-74
2022/10/03 00:58:50;;;;;;;3.60;0.93;;;;;;;;;;4970808;28;20680;-73
2022/10/03 01:01:20;;;;;;;2.43;0.93;;;;;;;;;;4953457;28;20194;-73
2022/10/03 01:03:54;;;;;;;1.57;0.80;;;;;;;;;;4970703;28;20245;-74
2022/10/03 01:06:42;;;;;;;1.27;0.90;;;;;;;;;;4953386;28;20197;-73
2022/10/03 01:09:11;;;;;;;3.07;0.90;;;;;;;;;;4952958;28;20209;-74
2022/10/03 01:12:00;;;;;;;2.00;0.80;;;;;;;;;;4980649;28;20239;-74
2022/10/03 01:14:27;;;;;;;2.53;1.10;;;;;;;;;;4990047;28;20196;-73
2022/10/03 01:17:13;;;;;;;2.53;1.00;;;;;;;;;;4989837;28;20781;-73
2022/10/03 01:19:46;;;;;;;2.77;1.10;;;;;;;;;;4990005;28;20564;-73
2022/10/03 01:22:43;;;;;;;3.67;1.10;;;;;;;;;;4975735;28;20541;-73
2022/10/03 01:25:10;;;;;;;1.37;0.80;;;;;;;;;;4972613;28;20191;-73
2022/10/03 01:30:21;;;;;;;1.83;0.97;;;;;;;;;;4989968;28;20260;-73
2022/10/03 01:30:27;;;;;;;2.17;1.03;;;;;;;;;;4975225;28;20188;-73
2022/10/03 01:33:11;;;;;;;2.63;0.90;;;;;;;;;;4975196;28;20165;-73
2022/10/03 01:35:41;;;;;;;2.33;1.10;;;;;;;;;;4981438;28;20201;-74
2022/10/03 01:38:08;;;;;;;3.40;1.10;;;;;;;;;;4986731;28;20534;-73
2022/10/03 01:40:43;;;;;;;2.33;1.03;;;;;;;;;;4988437;28;20291;-73
2022/10/03 01:43:40;;;;;;;1.97;1.07;;;;;;;;;;4989289;28;20275;-74
2022/10/03 01:46:09;;;;;;;1.63;0.90;;;;;;;;;;4988359;28;20200;-73
2022/10/03 01:48:39;;;;;;;1.30;0.80;;;;;;;;;;4989806;28;20201;-73
2022/10/03 01:51:12;;;;;;;2.87;1.03;;;;;;;;;;4989173;28;20200;-74
2022/10/03 01:53:38;;;;;;;2.60;1.00;;;;;;;;;;4988902;28;20189;-74
2022/10/03 01:56:05;;;;;;;2.83;1.17;;;;;;;;;;4956205;28;20220;-73
2022/10/03 01:58:38;;;;;;;3.63;1.00;;;;;;;;;;4989726;28;20189;-73
2022/10/03 02:01:13;;;;;;;3.07;1.50;;;;;;;;;;4972095;28;20193;-73
2022/10/03 02:03:45;;;;;;;3.40;1.00;;;;;;;;;;4972481;28;20598;-74
2022/10/03 02:06:16;;;;;;;1.83;1.03;;;;;;;;;;4992402;28;20207;-74
2022/10/03 02:08:47;;;;;;;3.40;1.30;;;;;;;;;;4976143;28;20189;-74
2022/10/03 02:11:34;;;;;;;3.23;1.30;;;;;;;;;;4993868;28;20196;-74
2022/10/03 02:14:21;;;;;;;2.53;1.07;;;;;;;;;;4993290;28;20185;-73
2022/10/03 02:16:57;;;;;;;3.00;1.10;;;;;;;;;;4974936;28;20292;-74
2022/10/03 02:19:33;;;;;;;3.43;1.10;;;;;;;;;;4975855;28;20199;-74
2022/10/03 02:22:00;;;;;;;4.60;1.37;;;;;;;;;;4975863;28;20655;-73
2022/10/03 02:24:36;;;;;;;1.50;1.00;;;;;;;;;;4992798;28;20195;-74
2022/10/03 02:27:02;;;;;;;1.10;0.83;;;;;;;;;;4992800;28;20290;-73
2022/10/03 02:29:30;;;;;;;2.97;1.10;;;;;;;;;;4991962;28;20204;-74
2022/10/03 02:32:15;;;;;;;4.63;1.20;;;;;;;;;;4993032;28;20211;-72
2022/10/03 02:34:52;;;;;;;2.83;1.30;;;;;;;;;;4980693;28;20450;-73
2022/10/03 02:37:51;;;;;;;1.10;1.00;;;;;;;;;;4982660;28;20232;-73
2022/10/03 02:40:18;;;;;;;3.23;1.30;;;;;;;;;;4981070;28;20211;-73
2022/10/03 02:42:58;;;;;;;4.70;1.60;;;;;;;;;;4992333;28;20207;-73
2022/10/03 02:45:34;;;;;;;4.33;1.50;;;;;;;;;;4991281;28;20204;-74
2022/10/03 02:48:11;;;;;;;2.13;1.50;;;;;;;;;;4991279;28;20199;-73
2022/10/03 02:51:09;;;;;;;3.63;1.80;;;;;;;;;;4960103;28;20600;-73
2022/10/03 02:53:35;;;;;;;4.67;2.07;;;;;;;;;;4984397;28;20195;-72
2022/10/03 02:56:09;;;;;;;3.63;2.20;;;;;;;;;;4966739;28;21014;-72
2022/10/03 02:58:41;;;;;;;5.40;2.67;;;;;;;;;;4982927;28;20629;-71
2022/10/03 03:01:26;;;;;;;7.10;2.57;;;;;;;;;;4982148;28;20191;-73
2022/10/03 03:04:05;;;;;;;4.50;2.07;;;;;;;;;;4985389;28;20193;-75
2022/10/03 03:06:53;;;;;;;6.07;2.90;;;;;;;;;;4967403;28;20184;-73
2022/10/03 03:09:29;;;;;;;3.57;2.47;;;;;;;;;;4967145;28;20533;-70
2022/10/03 03:12:11;;;;;;;4.07;2.97;;;;;;;;;;4959276;28;20240;-72
2022/10/03 03:14:38;;;;;;;4.30;2.80;;;;;;;;;;4985787;28;20234;-74
2022/10/03 03:17:05;;;;;;;6.50;3.00;;;;;;;;;;4984486;28;20228;-75
2022/10/03 03:19:32;;;;;;;3.63;3.07;;;;;;;;;;4968202;28;20192;-74
2022/10/03 03:22:09;;;;;;;5.70;3.13;;;;;;;;;;4985478;28;20199;-70
2022/10/03 03:24:39;;;;;;;5.53;2.97;;;;;;;;;;4967437;28;20684;-73
2022/10/03 03:27:17;;;;;;;7.13;3.57;;;;;;;;;;4959776;28;20212;-73
2022/10/03 03:30:05;;;;;;;4.80;3.33;;;;;;;;;;4983309;28;20193;-74
2022/10/03 03:32:38;;;;;;;7.90;4.00;;;;;;;;;;4967362;28;20193;-73
2022/10/03 03:35:05;;;;;;;4.90;3.57;;;;;;;;;;4968231;28;20193;-73
2022/10/03 03:37:32;;;;;;;4.60;3.80;;;;;;;;;;4985319;28;20208;-74
2022/10/03 03:40:16;;;;;;;4.97;3.90;;;;;;;;;;4984247;28;20251;-73
2022/10/03 03:42:47;;;;;;;6.13;4.00;;;;;;;;;;4985404;28;20193;-73
2022/10/03 03:45:18;;;;;;;6.50;4.00;;;;;;;;;;4966555;28;20201;-77
2022/10/03 03:48:04;;;;;;;8.50;4.37;;;;;;;;;;4967615;28;20564;-72
2022/10/03 03:50:51;;;;;;;4.67;3.60;;;;;;;;;;4973986;28;20188;-73
2022/10/03 03:53:22;;;;;;;6.23;4.03;;;;;;;;;;4984703;28;20185;-71
2022/10/03 03:56:22;;;;;;;9.20;4.30;;;;;;;;;;4983333;28;20275;-73
2022/10/03 03:58:50;;;;;;;9.03;4.60;;;;;;;;;;4983034;28;20279;-70
2022/10/03 04:01:19;;;;;;;7.27;4.80;;;;;;;;;;4984063;28;20192;-70
2022/10/03 04:04:05;;;;;;;6.13;4.40;;;;;;;;;;4982583;28;20199;-73
2022/10/03 04:06:51;;;;;;;7.13;4.73;;;;;;;;;;4981884;28;20199;-71
2022/10/03 04:09:23;;;;;;;9.40;4.23;;;;;;;;;;4984151;28;20543;-71
2022/10/03 04:11:50;;;;;;;6.20;4.10;;;;;;;;;;4982389;28;20306;-75
2022/10/03 04:14:36;;;;;;;7.37;4.47;;;;;;;;;;4983032;28;20208;-72
2022/10/03 04:20:08;;;;;;;7.27;3.93;;;;;;;;;;4965679;28;20560;-69
2022/10/03 04:22:54;;;;;;;7.83;4.13;;;;;;;;;;4965024;28;20205;-71
2022/10/03 04:25:33;;;;;;;7.83;4.20;;;;;;;;;;4983115;28;20741;-69
2022/10/03 04:28:09;;;;;;;7.20;4.10;;;;;;;;;;4981048;28;20651;-71
2022/10/03 04:30:44;;;;;;;5.13;3.80;;;;;;;;;;4981651;28;20282;-72
2022/10/03 04:33:24;;;;;;;6.53;4.17;;;;;;;;;;4964960;28;20866;-73
2022/10/03 04:35:57;;;;;;;5.07;3.70;;;;;;;;;;4966024;28;20189;-77
2022/10/03 04:38:38;;;;;;;6.07;3.43;;;;;;;;;;4969092;28;20304;-73
2022/10/03 04:41:26;;;;;;;7.67;3.70;;;;;;;;;;4967865;28;20894;-71
2022/10/03 04:44:12;;;;;;;5.13;3.33;;;;;;;;;;4968513;28;20237;-72
2022/10/03 04:47:01;;;;;;;6.33;3.70;;;;;;;;;;4982403;28;20861;-72
2022/10/03 04:49:31;;;;;;;8.40;5.07;;;;;;;;;;4960170;28;20205;-71
2022/10/03 04:52:02;;;;;;;6.40;4.00;;;;;;;;;;4971307;28;20204;-71
2022/10/03 04:54:47;;;;;;;6.13;3.50;;;;;;;;;;4970546;28;20193;-71
2022/10/03 04:57:23;;;;;;;5.87;3.90;;;;;;;;;;4976588;28;20252;-71
2022/10/03 04:59:57;;;;;;;7.03;4.13;;;;;;;;;;4972991;28;20228;-72
2022/10/03 05:02:29;;;;;;;4.93;4.23;;;;;;;;;;4970938;28;20189;-71
2022/10/03 05:04:56;;;;;;;6.90;4.30;;;;;;;;;;4972445;28;20252;-72
2022/10/03 05:07:52;;;;;;;7.97;4.30;;;;;;;;;;4972171;28;20198;-72
2022/10/03 05:10:25;;;;;;;7.20;4.47;;;;;;;;;;4952321;28;20283;-71
2022/10/03 05:13:07;;;;;;;6.57;4.93;;;;;;;;;;4960298;28;20225;-71
2022/10/03 05:15:39;;;;;;;8.20;5.00;;;;;;;;;;4960235;28;20201;-71
2022/10/03 05:18:24;;;;;;;7.37;5.20;;;;;;;;;;4960061;28;20217;-71
2022/10/03 05:21:05;;;;;;;6.47;5.00;;;;;;;;;;4963171;28;20212;-72
2022/10/03 05:23:36;;;;;;;8.17;4.70;;;;;;;;;;4963957;28;20216;-72
2022/10/03 05:26:10;;;;;;;8.37;5.13;;;;;;;;;;4963766;28;20189;-72
2022/10/03 05:29:03;;;;;;;7.70;4.77;;;;;;;;;;4963562;28;20196;-73
2022/10/03 05:31:32;;;;;;;6.87;5.00;;;;;;;;;;4963029;28;20205;-75
2022/10/03 05:34:18;;;;;;;8.23;4.90;;;;;;;;;;4965211;28;20193;-72
2022/10/03 05:36:47;;;;;;;6.73;4.57;;;;;;;;;;4964248;28;20232;-71
2022/10/03 05:39:33;;;;;;;9.50;5.10;;;;;;;;;;4969663;28;20200;-71
2022/10/03 05:42:06;;;;;;;6.67;4.80;;;;;;;;;;4974665;28;20197;-72
2022/10/03 05:45:02;;;;;;;5.40;4.30;;;;;;;;;;4993000;28;20310;-72
2022/10/03 05:47:44;;;;;;;5.60;4.27;;;;;;;;;;4976837;28;20679;-71
2022/10/03 05:50:15;;;;;;;6.10;4.40;;;;;;;;;;4993703;28;20192;-78
2022/10/03 05:53:16;;;;;;;10.20;4.73;;;;;;;;;;4965760;28;20197;-71
2022/10/03 05:55:44;;;;;;;9.27;4.47;;;;;;;;;;4943816;28;20227;-70
2022/10/03 05:58:24;;;;;;;8.90;4.77;;;;;;;;;;4968027;28;20220;-72
2022/10/03 06:00:56;;;;;;;7.93;4.53;;;;;;;;;;4986266;28;20207;-72
2022/10/03 06:03:47;;;;;;;7.03;4.50;;;;;;;;;;4985322;28;20223;-72
2022/10/03 06:06:26;;;;;;;6.07;4.27;;;;;;;;;;4969820;28;20675;-73
2022/10/03 06:09:12;;;;;;;8.20;4.43;;;;;;;;;;4986393;28;20196;-73
2022/10/03 06:11:41;;;;;;;8.20;4.40;;;;;;;;;;4988426;28;20212;-73
2022/10/03 06:14:23;;;;;;;4.97;3.90;;;;;;;;;;4970508;28;20268;-73
2022/10/03 06:16:55;;;;;;;7.67;4.10;;;;;;;;;;4988410;28;20221;-73
2022/10/03 06:19:35;;;;;;;5.33;4.30;;;;;;;;;;4970780;28;20292;-73
2022/10/03 06:22:20;;;;;;;7.00;3.90;;;;;;;;;;4971032;28;20200;-72
2022/10/03 06:25:02;;;;;;;4.80;4.00;;;;;;;;;;4988338;28;20203;-72
2022/10/03 06:27:47;;;;;;;6.87;4.20;;;;;;;;;;4986268;28;20750;-73
2022/10/03 06:30:33;;;;;;;5.50;3.70;;;;;;;;;;4987892;28;20268;-73
2022/10/03 06:33:00;;;;;;;6.03;3.50;;;;;;;;;;4968665;28;20204;-73
2022/10/03 06:35:30;;;;;;;5.30;3.23;;;;;;;;;;4986144;28;20200;-76
2022/10/03 06:38:06;;;;;;;6.00;3.13;;;;;;;;;;4969274;28;20579;-74
2022/10/03 06:40:52;;;;;;;5.03;2.80;;;;;;;;;;4985063;28;20553;-74
2022/10/03 06:43:19;;;;;;;4.27;2.80;;;;;;;;;;4985395;28;20243;-73
2022/10/03 06:46:06;;;;;;;5.30;2.90;;;;;;;;;;4985972;28;20185;-74
2022/10/03 06:48:52;;;;;;;6.97;3.00;;;;;;;;;;4967678;28;20193;-72
2022/10/03 06:51:26;;;;;;;4.10;2.53;;;;;;;;;;4967944;28;20204;-71
2022/10/03 06:54:15;;;;;;;5.77;2.83;;;;;;;;;;4985061;28;20223;-71
2022/10/03 06:56:46;;;;;;;5.13;2.50;;;;;;;;;;4985242;28;20208;-67
2022/10/03 06:59:31;;;;;;;3.17;2.20;;;;;;;;;;4984388;28;20224;-69
2022/10/03 07:02:17;;;;;;;8.90;2.00;;;;;;;;;;4968461;28;20201;-69
2022/10/03 07:05:03;;;;;;;2.77;2.03;;;;;;;;;;4984425;28;20522;-68
2022/10/03 07:07:39;;;;;;;4.10;2.30;;;;;;;;;;4985500;28;20209;-69
2022/10/03 07:10:14;;;;;;;5.13;2.30;;;;;;;;;;4984803;28;20199;-73
2022/10/03 07:12:50;;;;;;;4.70;2.13;;;;;;;;;;4985271;28;20196;-68
2022/10/03 07:15:25;;;;;;;3.27;1.77;;;;;;;;;;4977010;28;20259;-68
2022/10/03 07:18:21;;;;;;;6.20;1.87;;;;;;;;;;4983907;28;20209;-68
2022/10/03 07:20:54;;;;;;;3.63;1.83;;;;;;;;;;4985370;28;20220;-69
2022/10/03 07:23:26;;;;;;;4.23;2.00;;;;;;;;;;4985754;28;20200;-69
2022/10/03 07:26:09;;;;;;;4.50;2.10;;;;;;;;;;4968739;28;20293;-71
2022/10/03 07:28:37;;;;;;;6.33;1.80;;;;;;;;;;4984818;28;20201;-72
2022/10/03 07:31:07;;;;;;;2.13;1.60;;;;;;;;;;4985847;28;20240;-69
2022/10/03 07:33:53;;;;;;;4.83;2.00;;;;;;;;;;4966645;28;20283;-72
2022/10/03 07:39:40;;;;;;;3.17;2.00;;;;;;;;;;4969434;28;20932;-73
2022/10/03 07:42:08;;;;;;;5.57;2.10;;;;;;;;;;4985285;28;20184;-71
2022/10/03 07:44:48;;;;;;;4.30;1.83;;;;;;;;;;4983773;28;20232;-69
2022/10/03 07:47:34;;;;;;;4.23;2.23;;;;;;;;;;4986146;28;20284;-71
2022/10/03 07:50:03;;;;;;;4.43;2.07;;;;;;;;;;4984504;28;20189;-69
2022/10/03 07:52:39;;;;;;;2.80;2.10;;;;;;;;;;4982755;28;20216;-71
2022/10/03 07:55:20;;;;;;;4.03;1.70;;;;;;;;;;4967861;28;20660;-69
2022/10/03 07:57:49;;;;;;;4.67;1.40;;;;;;;;;;4966823;28;20572;-71
2022/10/03 08:00:28;;;;;;;4.57;1.60;;;;;;;;;;4984215;28;20201;-71
2022/10/03 08:03:08;;;;;;;3.23;1.63;;;;;;;;;;4966703;28;20197;-72
2022/10/03 08:05:47;;;;;;;2.80;1.47;;;;;;;;;;4985343;28;20220;-73
2022/10/03 08:08:14;;;;;;;2.97;1.40;;;;;;;;;;4985714;28;20263;-73
2022/10/03 08:11:02;;;;;;;2.17;1.03;;;;;;;;;;4981900;28;20213;-73
2022/10/03 08:13:36;;;;;;;1.70;1.20;;;;;;;;;;4983458;28;20653;-73
2022/10/03 08:16:13;;;;;;;3.20;1.17;;;;;;;;;;4982734;28;20204;-73
2022/10/03 08:18:47;;;;;;;3.70;1.20;;;;;;;;;;4980764;28;20224;-73
2022/10/03 08:21:35;;;;;;;2.87;1.30;;;;;;;;;;4984265;28;20220;-73
2022/10/03 08:24:08;;;;;;;1.37;1.17;;;;;;;;;;4984948;28;20200;-78
2022/10/03 08:26:50;;;;;;;2.93;1.23;;;;;;;;;;4984833;28;20651;-76
2022/10/03 08:29:18;;;;;;;1.63;1.20;;;;;;;;;;4968187;28;20207;-76
2022/10/03 08:31:48;;;;;;;2.37;1.00;;;;;;;;;;4984618;28;20208;-75
2022/10/03 08:34:24;;;;;;;2.53;1.00;;;;;;;;;;4983512;28;20228;-75
2022/10/03 08:36:55;;;;;;;2.00;1.00;;;;;;;;;;4956773;28;20205;-74
2022/10/03 08:39:25;;;;;;;1.33;1.00;;;;;;;;;;4983610;28;20259;-72
2022/10/03 08:42:02;;;;;;;2.70;1.03;;;;;;;;;;4982056;28;20203;-71
2022/10/03 08:44:48;;;;;;;1.90;0.83;;;;;;;;;;4982254;28;20239;-72
2022/10/03 08:47:20;;;;;;;4.13;1.20;;;;;;;;;;4984662;28;20189;-77
2022/10/03 08:49:53;;;;;;;2.40;1.20;;;;;;;;;;4981162;28;20255;-75
2022/10/03 08:52:23;;;;;;;2.57;1.17;;;;;;;;;;4983715;28;20193;-72
2022/10/03 08:55:09;;;;;;;1.60;1.27;;;;;;;;;;4966356;28;20993;-74
2022/10/03 08:57:57;;;;;;;3.27;1.40;;;;;;;;;;4982463;28;20694;-73
2022/10/03 09:00:43;;;;;;;2.27;1.20;;;;;;;;;;4933437;28;20721;-73
2022/10/03 09:03:40;;;;;;;3.07;1.73;;;;;;;;;;4983026;28;20181;-72
2022/10/03 09:06:25;;;;;;;4.77;1.40;;;;;;;;;;4898245;28;20313;-68
2022/10/03 09:08:58;;;;;;;4.67;1.40;;;;;;;;;;4966266;28;20225;-69
2022/10/03 09:11:31;;;;;;;3.80;1.30;;;;;;;;;;4983535;28;20210;-69
2022/10/03 09:14:13;;;;;;;2.30;1.23;;;;;;;;;;4965968;28;21036;-72
2022/10/03 09:16:43;;;;;;;7.80;1.50;;;;;;;;;;4981697;28;20200;-70
2022/10/03 09:19:17;;;;;;;2.17;1.10;;;;;;;;;;4965115;28;20323;-72
2022/10/03 09:22:01;;;;;;;2.03;1.00;;;;;;;;;;4982937;28;20241;-71
2022/10/03 09:24:46;;;;;;;3.37;1.10;;;;;;;;;;4982650;28;20283;-74
2022/10/03 09:27:13;;;;;;;1.37;1.00;;;;;;;;;;4983064;28;20189;-73
2022/10/03 09:29:59;;;;;;;2.27;1.10;;;;;;;;;;4981925;28;20580;-72
2022/10/03 09:32:28;;;;;;;2.37;1.10;;;;;;;;;;4982322;28;20868;-70
2022/10/03 09:35:05;;;;;;;3.33;1.33;;;;;;;;;;4983588;28;20189;-69
2022/10/03 09:37:58;;;;;;;4.23;1.20;;;;;;;;;;4983324;28;20542;-70
2022/10/03 09:40:31;;;;;;;2.60;1.10;;;;;;;;;;4983141;28;20208;-71
2022/10/03 09:43:34;;;;;;;3.00;1.20;;;;;;;;;;4983102;28;20948;-70
2022/10/03 09:46:03;;;;;;;3.33;0.90;;;;;;;;;;4983348;28;20677;-70
2022/10/03 09:48:43;;;;;;;2.30;1.10;;;;;;;;;;4983272;28;20193;-70
2022/10/03 09:51:25;;;;;;;3.97;1.30;;;;;;;;;;4981581;28;20192;-72
2022/10/03 09:54:09;;;;;;;1.77;1.30;;;;;;;;;;4982830;28;20173;-71
2022/10/03 09:56:43;;;;;;;2.43;1.50;;;;;;;;;;4982955;28;20185;-71
2022/10/03 09:59:13;;;;;;;4.07;1.30;;;;;;;;;;4980985;28;20232;-72
2022/10/03 10:01:46;;;;;;;2.00;1.20;;;;;;;;;;4966124;28;20228;-72
2022/10/03 10:04:34;;;;;;;4.60;1.70;;;;;;;;;;4980926;28;20294;-74
2022/10/03 10:07:39;;;;;;;43.93;18.90;;;;;;;;;;4962945;28;20197;-69
2022/10/03 10:10:17;;;;;;;3.87;1.87;;;;;;;;;;4982374;28;20224;-71
2022/10/03 10:13:10;;;;;;;2.50;1.60;;;;;;;;;;4970401;28;20548;-72
2022/10/03 10:15:37;;;;;;;4.77;1.60;;;;;;;;;;4936569;28;20205;-72
2022/10/03 10:18:22;;;;;;;2.67;1.80;;;;;;;;;;4987582;28;20209;-72
2022/10/03 10:21:19;;;;;;;2.03;1.43;;;;;;;;;;4965558;28;20680;-69
2022/10/03 10:23:45;;;;;;;4.10;2.00;;;;;;;;;;4889696;28;20914;-73
2022/10/03 10:26:32;;;;;;;2.17;1.90;;;;;;;;;;4990253;28;20189;-72
2022/10/03 10:29:11;;;;;;;5.43;1.80;;;;;;;;;;4993641;28;20193;-71
2022/10/03 10:32:14;;;;;;;3.20;2.00;;;;;;;;;;4992363;28;20176;-70
2022/10/03 10:35:02;;;;;;;4.17;2.00;;;;;;;;;;4969129;28;20194;-72
2022/10/03 10:37:47;;;;;;;2.97;1.80;;;;;;;;;;4974003;28;20192;-71
2022/10/03 10:40:34;;;;;;;3.77;2.37;;;;;;;;;;4975674;28;20235;-70
2022/10/03 10:43:26;;;;;;;3.50;2.07;;;;;;;;;;4992586;28;20220;-72
2022/10/03 10:45:59;;;;;;;2.63;1.73;;;;;;;;;;4975685;28;20201;-71
2022/10/03 10:48:44;;;;;;;1.40;1.20;;;;;;;;;;4975353;28;20794;-72
2022/10/03 10:51:11;;;;;;;6.20;1.40;;;;;;;;;;4987087;28;20246;-70
2022/10/03 10:53:44;;;;;;;2.13;1.33;;;;;;;;;;4983837;28;20200;-73
2022/10/03 10:56:26;;;;;;;1.73;1.30;;;;;;;;;;4985047;28;20216;-74
2022/10/03 10:59:11;;;;;;;3.30;1.70;;;;;;;;;;4986203;28;20200;-71
2022/10/03 11:01:57;;;;;;;2.97;1.60;;;;;;;;;;4967756;28;20298;-70
2022/10/03 11:04:33;;;;;;;5.83;1.57;;;;;;;;;;4988327;28;20271;-69
2022/10/03 11:07:13;;;;;;;3.90;1.57;;;;;;;;;;4992381;28;20188;-68
2022/10/03 11:09:49;;;;;;;2.50;1.50;;;;;;;;;;4983812;28;20191;-59
2022/10/03 11:12:26;;;;;;;5.97;2.90;;;;;;;;;;4984864;28;20200;-59
2022/10/03 11:15:11;;;;;;;3.33;2.20;;;;;;;;;;4952756;28;20318;-59
2022/10/03 11:17:47;;;;;;;5.73;1.77;;;;;;;;;;4986327;28;21104;-59
2022/10/03 11:20:13;;;;;;;4.23;1.63;;;;;;;;;;4983960;28;20184;-59
2022/10/03 11:22:59;;;;;;;3.03;1.40;;;;;;;;;;4986024;28;20192;-60
2022/10/03 11:25:50;;;;;;;8.13;3.07;;;;;;;;;;4983951;28;20573;-60
2022/10/03 11:28:16;;;;;;;3.53;1.40;;;;;;;;;;4985389;28;20188;-59
2022/10/03 11:30:57;;;;;;;5.37;1.47;;;;;;;;;;4964777;28;20233;-60
2022/10/03 11:33:24;;;;;;;1.90;1.33;;;;;;;;;;4966583;28;20511;-60
2022/10/03 11:36:10;;;;;;;5.20;1.70;;;;;;;;;;4965742;28;20206;-59
2022/10/03 11:38:47;;;;;;;2.10;1.50;;;;;;;;;;4964421;28;20829;-69
2022/10/03 11:41:17;;;;;;;2.33;1.40;;;;;;;;;;4964641;28;20197;-69
2022/10/03 11:43:49;;;;;;;3.90;1.87;;;;;;;;;;4963496;28;20229;-69
2022/10/03 11:46:19;;;;;;;5.63;1.97;;;;;;;;;;4963292;28;20189;-69
2022/10/03 11:48:58;;;;;;;2.20;1.40;;;;;;;;;;4965601;28;20190;-73
2022/10/03 11:51:45;;;;;;;4.33;1.50;;;;;;;;;;4961682;28;20202;-72
2022/10/03 11:54:20;;;;;;;2.90;1.37;;;;;;;;;;4955075;28;20216;-69
2022/10/03 11:57:08;;;;;;;2.47;1.40;;;;;;;;;;4964330;28;20197;-69
2022/10/03 11:59:38;;;;;;;2.23;1.30;;;;;;;;;;4963248;28;20243;-70
2022/10/03 12:02:27;;;;;;;3.70;1.20;;;;;;;;;;4965215;28;21097;-69
2022/10/03 12:05:02;;;;;;;2.10;1.00;;;;;;;;;;4934631;28;20213;-70
2022/10/03 12:10:29;;;;;;;2.60;1.43;;;;;;;;;;4963380;28;20197;-67
2022/10/03 12:12:56;;;;;;;1.67;1.20;;;;;;;;;;4963428;28;20186;-69
2022/10/03 12:15:33;;;;;;;1.93;1.17;;;;;;;;;;4964021;28;20201;-68
2022/10/03 12:18:06;;;;;;;3.67;1.10;;;;;;;;;;4963924;28;20197;-67
2022/10/03 12:20:33;;;;;;;2.43;0.90;;;;;;;;;;4963494;28;20213;-67
2022/10/03 12:23:06;;;;;;;1.50;1.00;;;;;;;;;;4964177;28;20189;-66
2022/10/03 12:25:35;;;;;;;2.47;1.00;;;;;;;;;;4964805;28;20213;-68
2022/10/03 12:28:06;;;;;;;2.37;1.00;;;;;;;;;;4963160;28;20196;-68
2022/10/03 12:30:41;;;;;;;1.27;0.97;;;;;;;;;;4943523;28;20604;-69
2022/10/03 12:33:11;;;;;;;1.93;1.10;;;;;;;;;;4961951;28;20203;-72
2022/10/03 12:35:43;;;;;;;2.30;1.00;;;;;;;;;;4963865;28;20209;-71
2022/10/03 12:38:13;;;;;;;2.60;1.10;;;;;;;;;;4963626;28;20209;-69
2022/10/03 12:40:42;;;;;;;1.27;1.10;;;;;;;;;;4963105;28;20240;-69
2022/10/03 12:43:24;;;;;;;2.13;1.33;;;;;;;;;;4959911;28;20297;-71
2022/10/03 12:45:54;;;;;;;4.60;1.50;;;;;;;;;;4963061;28;20329;-71
2022/10/03 12:48:33;;;;;;;1.70;1.40;;;;;;;;;;4959522;28;20269;-69
2022/10/03 12:51:03;;;;;;;1.80;1.50;;;;;;;;;;4963420;28;20664;-68
2022/10/03 12:53:32;;;;;;;5.73;1.50;;;;;;;;;;4962663;28;20288;-67
2022/10/03 12:56:07;;;;;;;3.37;1.40;;;;;;;;;;4964167;28;20312;-66
2022/10/03 12:58:57;;;;;;;4.13;2.00;;;;;;;;;;4962383;28;20225;-67
2022/10/03 13:01:37;;;;;;;4.50;1.83;;;;;;;;;;4960049;28;20244;-67
2022/10/03 13:04:24;;;;;;;4.00;2.43;;;;;;;;;;4950557;29;20242;-66
2022/10/03 13:06:51;;;;;;;4.13;2.40;;;;;;;;;;4950694;28;20685;-66
2022/10/03 13:09:48;;;;;;;2.67;1.80;;;;;;;;;;4955121;28;20200;-67
2022/10/03 13:12:39;;;;;;;3.90;2.23;;;;;;;;;;4962815;28;20525;-67
2022/10/03 13:15:16;;;;;;;5.07;2.20;;;;;;;;;;4961409;28;20277;-67
2022/10/03 13:17:46;;;;;;;4.53;2.10;;;;;;;;;;4971843;28;20209;-68
2022/10/03 13:20:16;;;;;;;4.90;2.00;;;;;;;;;;4971972;28;20775;-67
2022/10/03 13:22:43;;;;;;;3.27;2.10;;;;;;;;;;4969841;28;20288;-67
2022/10/03 13:25:20;;;;;;;2.70;1.80;;;;;;;;;;4961250;28;20281;-68
2022/10/03 13:27:50;;;;;;;3.87;1.90;;;;;;;;;;4971282;28;20201;-68
2022/10/03 13:30:19;;;;;;;5.07;1.90;;;;;;;;;;4971998;28;20194;-68
2022/10/03 13:32:49;;;;;;;3.17;1.50;;;;;;;;;;4969329;28;20589;-69
2022/10/03 13:38:37;;;;;;;3.20;2.00;;;;;;;;;;4929829;29;20199;-69
2022/10/03 13:41:24;;;;;;;2.73;2.00;;;;;;;;;;4949789;28;20329;-68
2022/10/03 13:44:11;;;;;;;4.77;2.07;;;;;;;;;;4950947;28;20229;-69
2022/10/03 13:46:43;;;;;;;4.07;2.27;;;;;;;;;;4950220;29;20190;-69
2022/10/03 13:49:17;;;;;;;4.17;2.50;;;;;;;;;;4965779;28;20611;-68
2022/10/03 13:52:04;;;;;;;3.83;2.57;;;;;;;;;;4965540;28;20201;-69
2022/10/03 13:54:38;;;;;;;3.47;2.70;;;;;;;;;;4951341;28;20194;-68
2022/10/03 13:57:09;;;;;;;3.60;2.80;;;;;;;;;;4951254;29;20197;-69
2022/10/03 13:59:42;;;;;;;3.10;2.40;;;;;;;;;;4951130;28;20214;-68
2022/10/03 14:02:41;;;;;;;3.60;2.53;;;;;;;;;;4967286;28;20178;-68
2022/10/03 14:05:27;;;;;;;5.13;2.60;;;;;;;;;;4954927;28;20205;-69
2022/10/03 14:08:03;;;;;;;2.90;2.60;;;;;;;;;;4954787;29;20194;-68
2022/10/03 14:10:42;;;;;;;7.63;4.83;;;;;;;;;;4954215;28;20206;-68
2022/10/03 14:13:44;;;;;;;5.83;4.00;;;;;;;;;;4954567;28;20190;-69
2022/10/03 14:16:19;;;;;;;4.13;2.43;;;;;;;;;;4895479;29;20203;-68
2022/10/03 14:18:50;;;;;;;5.47;2.80;;;;;;;;;;4930083;29;20201;-68
2022/10/03 14:21:20;;;;;;;3.43;2.73;;;;;;;;;;4954473;28;20194;-69
2022/10/03 14:24:04;;;;;;;3.33;2.53;;;;;;;;;;4954099;29;20169;-68
2022/10/03 14:26:36;;;;;;;5.03;3.10;;;;;;;;;;4954799;28;20186;-69
2022/10/03 14:29:03;;;;;;;5.07;3.23;;;;;;;;;;4954527;28;20186;-68
2022/10/03 14:31:34;;;;;;;7.43;3.00;;;;;;;;;;4954259;28;20634;-69
2022/10/03 14:34:04;;;;;;;3.50;3.00;;;;;;;;;;4954006;28;20182;-69
2022/10/03 14:36:54;;;;;;;3.63;3.10;;;;;;;;;;4972084;28;20645;-69
2022/10/03 14:39:28;;;;;;;4.63;3.03;;;;;;;;;;4973345;28;20288;-68
2022/10/03 14:42:27;;;;;;;7.30;3.63;;;;;;;;;;4973452;28;20188;-69
2022/10/03 14:45:07;;;;;;;5.73;3.87;;;;;;;;;;4972257;28;20193;-69
2022/10/03 14:48:11;;;;;;;4.63;3.73;;;;;;;;;;4972386;28;20173;-68
2022/10/03 14:50:38;;;;;;;4.60;3.40;;;;;;;;;;4973027;28;20213;-69
2022/10/03 14:53:23;;;;;;;5.60;3.70;;;;;;;;;;4973510;28;20259;-69
2022/10/03 14:55:50;;;;;;;7.60;4.07;;;;;;;;;;4972447;28;20537;-69
2022/10/03 14:58:21;;;;;;;7.40;4.27;;;;;;;;;;4973596;28;20189;-71
2022/10/03 15:00:54;;;;;;;5.47;4.03;;;;;;;;;;4967703;28;20214;-67
2022/10/03 15:03:27;;;;;;;5.47;3.97;;;;;;;;;;4969329;28;20240;-68
2022/10/03 15:06:09;;;;;;;7.03;4.87;;;;;;;;;;4965246;28;20201;-71
2022/10/03 15:08:38;;;;;;;4.90;4.23;;;;;;;;;;4967132;28;20221;-69
2022/10/03 15:11:05;;;;;;;6.37;4.57;;;;;;;;;;4965170;28;20201;-68
2022/10/03 15:13:33;;;;;;;6.90;4.90;;;;;;;;;;4965992;28;20573;-68
2022/10/03 15:16:00;;;;;;;6.20;4.90;;;;;;;;;;4965580;28;20653;-68
2022/10/03 15:18:27;;;;;;;5.97;5.10;;;;;;;;;;4964675;28;20201;-68
2022/10/03 15:20:54;;;;;;;5.57;4.67;;;;;;;;;;4965426;28;20225;-67
2022/10/03 15:23:21;;;;;;;6.07;5.33;;;;;;;;;;4965331;28;20185;-66
2022/10/03 15:25:52;;;;;;;7.50;5.20;;;;;;;;;;4963264;28;20600;-68
2022/10/03 15:28:20;;;;;;;6.93;5.20;;;;;;;;;;4966893;28;20193;-67
2022/10/03 15:30:47;;;;;;;5.73;4.90;;;;;;;;;;4961197;28;20672;-68
2022/10/03 15:33:22;;;;;;;6.10;5.50;;;;;;;;;;4968541;28;20784;-68
2022/10/03 15:35:52;;;;;;;7.33;5.43;;;;;;;;;;4970444;28;20201;-66
2022/10/03 15:38:23;;;;;;;7.03;6.00;;;;;;;;;;4960558;28;20186;-66
2022/10/03 15:41:15;;;;;;;10.43;7.20;;;;;;;;;;4957630;28;20320;-67
2022/10/03 15:44:02;;;;;;;11.53;8.43;;;;;;;;;;4965974;28;20708;-67
2022/10/03 15:46:29;;;;;;;9.27;6.80;;;;;;;;;;4968021;28;20201;-66
2022/10/03 15:48:58;;;;;;;8.10;7.17;;;;;;;;;;4958383;28;20683;-66
2022/10/03 15:51:25;;;;;;;8.60;7.10;;;;;;;;;;4969698;28;20553;-66
2022/10/03 15:53:52;;;;;;;9.53;7.97;;;;;;;;;;4973891;28;20189;-66
2022/10/03 15:56:28;;;;;;;9.50;7.70;;;;;;;;;;4966469;28;20190;-66